Aviation Digital Data Service (ADDS)

Output produced by METARs form (0133 UTC 19 October 2021)
found at http://www.aviationweather.gov/metar/data/
 
Forecast for: EDDS (STUTTGART/ECHTER, DE)
Text: TAF EDDS 182300Z 1900/1924 VRB03KT CAVOK
Forecast period: 0000 to 0900 UTC 19 October 2021
Forecast type: FROM: standard forecast or significant change
Winds: variable direction winds at 3 MPH (3 knots; 1.5 m/s)
Visibility: 6 or more miles (10+ km)
Ceiling: unknown
Clouds: missing
Weather: NSW  (no significant weather)
Text: PROB30
Forecast period: 0000 to 0400 UTC 19 October 2021
Forecast type: TEMPORARY: The following changes expected for less than half the time period
Visibility: 0.93 miles (1.50 km)
Ceiling: unknown
Clouds: missing
Weather: BCFG  (patches of fog)
Text: TEMPO 1900/1904 1500 BCFG
Forecast period: 0900 UTC 19 October 2021 to 0000 UTC 20 October 2021
Forecast type: BECOMING: Conditions expected to become as follows by 1100 UTC 19 October 2021
Winds: from the SSW (200 degrees) at 6 MPH (5 knots; 2.6 m/s)
Visibility: 6 or more miles (10+ km)
Ceiling: unknown
Clouds: missing
Weather: NSW  (no significant weather)